createdAt,value
2022-08-29T00:00:43.014Z,17.66
2022-08-29T00:03:32.136Z,17.65
2022-08-29T00:06:22.050Z,17.64
2022-08-29T00:09:10.611Z,17.55
2022-08-29T00:11:59.699Z,17.63
2022-08-29T00:14:48.308Z,17.58
2022-08-29T00:17:36.828Z,17.53
2022-08-29T00:20:30.219Z,17.57
2022-08-29T00:23:24.452Z,17.54
2022-08-29T00:26:13.355Z,17.52
2022-08-29T00:29:02.127Z,17.63
2022-08-29T00:31:50.688Z,17.62
2022-08-29T00:34:39.233Z,17.61
2022-08-29T00:37:27.866Z,17.57
2022-08-29T00:40:21.637Z,17.58
2022-08-29T00:43:10.948Z,17.58
2022-08-29T00:46:06.507Z,17.55
2022-08-29T00:48:58.383Z,17.46
2022-08-29T00:51:47.763Z,17.47
2022-08-29T00:54:38.150Z,17.48
2022-08-29T00:57:31.563Z,17.32
2022-08-29T01:00:20.572Z,16.85
2022-08-29T01:03:09.278Z,17.41
2022-08-29T01:05:58.283Z,17.27
2022-08-29T01:08:47.171Z,17.24
2022-08-29T01:11:53.646Z,17.17
2022-08-29T01:14:47.354Z,17.17
2022-08-29T01:17:39.131Z,17.08
2022-08-29T01:20:35.120Z,17.05
2022-08-29T01:23:28.740Z,17.07
2022-08-29T01:26:18.681Z,16.99
2022-08-29T01:29:07.275Z,16.98
2022-08-29T01:31:57.988Z,16.92
2022-08-29T01:34:46.890Z,16.92
2022-08-29T01:37:38.150Z,16.83
2022-08-29T01:40:30.416Z,16.60
2022-08-29T01:43:20.814Z,16.78
2022-08-29T01:46:10.432Z,16.77
2022-08-29T01:49:01.038Z,16.75
2022-08-29T01:51:49.609Z,16.72
2022-08-29T01:54:38.720Z,16.42
2022-08-29T01:57:27.476Z,16.65
2022-08-29T02:00:18.658Z,16.66
2022-08-29T02:03:07.253Z,16.62
2022-08-29T02:05:59.183Z,16.62
2022-08-29T02:08:47.751Z,16.65
2022-08-29T02:11:36.463Z,16.56
2022-08-29T02:14:25.267Z,16.45
2022-08-29T02:17:15.154Z,16.42
2022-08-29T02:20:06.480Z,16.42
2022-08-29T02:22:56.123Z,16.35
2022-08-29T02:25:47.452Z,16.36
2022-08-29T02:28:37.331Z,16.30
2022-08-29T02:31:26.369Z,16.27
2022-08-29T02:34:16.596Z,16.10
2022-08-29T02:37:07.443Z,16.26
2022-08-29T02:39:56.144Z,16.24
2022-08-29T02:42:44.740Z,16.20
2022-08-29T02:45:33.867Z,16.16
2022-08-29T02:48:22.624Z,16.20
2022-08-29T02:51:13.737Z,16.12
2022-08-29T02:54:02.763Z,16.09
2022-08-29T02:56:51.330Z,16.06
2022-08-29T02:59:39.811Z,16.01
2022-08-29T03:02:28.754Z,15.99
2022-08-29T03:05:18.965Z,15.99
2022-08-29T03:08:10.718Z,15.99
2022-08-29T03:10:59.296Z,15.97
2022-08-29T03:13:47.899Z,15.92
2022-08-29T03:16:36.557Z,15.88
2022-08-29T03:19:26.052Z,15.83
2022-08-29T03:22:15.222Z,15.86
2022-08-29T03:25:06.560Z,15.82
2022-08-29T03:27:55.154Z,15.87
2022-08-29T03:30:43.708Z,15.87
2022-08-29T03:33:32.262Z,15.74
2022-08-29T03:36:20.855Z,15.81
2022-08-29T03:39:09.483Z,15.82
2022-08-29T03:41:59.325Z,15.77
2022-08-29T03:44:48.514Z,14.68
2022-08-29T03:47:37.012Z,15.75
2022-08-29T03:50:25.532Z,15.72
2022-08-29T03:53:14.184Z,15.69
2022-08-29T03:56:04.394Z,15.63
2022-08-29T03:58:54.891Z,15.61
2022-08-29T04:01:43.768Z,15.57
2022-08-29T04:04:49.894Z,15.55
2022-08-29T04:07:43.945Z,15.49
2022-08-29T04:10:34.993Z,15.45
2022-08-29T04:13:24.348Z,15.54
2022-08-29T04:16:16.543Z,15.44
2022-08-29T04:19:05.274Z,15.46
2022-08-29T04:21:57.641Z,15.45
2022-08-29T04:24:46.272Z,15.38
2022-08-29T04:27:36.684Z,15.37
2022-08-29T04:30:28.088Z,15.29
2022-08-29T04:33:22.526Z,15.26
2022-08-29T04:36:14.919Z,15.28
2022-08-29T04:39:04.651Z,15.28
2022-08-29T04:41:53.179Z,15.25
2022-08-29T04:44:41.733Z,15.24
2022-08-29T04:47:30.974Z,15.31
2022-08-29T04:50:23.456Z,15.33
2022-08-29T04:53:12.006Z,15.34
2022-08-29T04:56:02.451Z,15.39
2022-08-29T04:58:52.004Z,15.39
2022-08-29T05:01:42.435Z,15.34
2022-08-29T05:04:31.117Z,15.31
2022-08-29T05:07:21.869Z,15.31
2022-08-29T05:10:13.495Z,15.31
2022-08-29T05:13:02.052Z,15.30
2022-08-29T05:15:51.262Z,15.26
2022-08-29T05:18:40.133Z,15.33
2022-08-29T05:21:35.248Z,15.40
2022-08-29T05:24:25.971Z,15.43
2022-08-29T05:27:17.431Z,15.57
2022-08-29T05:30:07.225Z,15.61
2022-08-29T05:32:55.802Z,15.59
2022-08-29T05:35:45.244Z,15.69
2022-08-29T05:38:33.760Z,15.69
2022-08-29T05:41:23.638Z,15.78
2022-08-29T05:44:12.141Z,15.79
2022-08-29T05:47:01.111Z,15.74
2022-08-29T05:49:50.309Z,15.60
2022-08-29T05:52:38.899Z,15.97
2022-08-29T05:55:27.444Z,16.05
2022-08-29T05:58:18.301Z,16.11
2022-08-29T06:01:07.055Z,16.22
2022-08-29T06:03:56.184Z,16.15
2022-08-29T06:06:44.848Z,16.56
2022-08-29T06:09:33.468Z,16.60
2022-08-29T06:12:22.094Z,16.77
2022-08-29T06:15:14.437Z,17.02
2022-08-29T06:18:03.172Z,17.24
2022-08-29T06:20:51.751Z,17.37
2022-08-29T06:23:42.093Z,17.46
2022-08-29T06:26:31.436Z,17.71
2022-08-29T06:29:19.999Z,17.70
2022-08-29T06:32:09.888Z,17.77
2022-08-29T06:34:58.584Z,17.79
2022-08-29T06:37:47.115Z,17.92
2022-08-29T06:40:35.713Z,18.09
2022-08-29T06:43:24.329Z,18.20
2022-08-29T06:46:21.393Z,18.49
2022-08-29T06:49:13.340Z,18.80
2022-08-29T06:52:02.049Z,19.23
2022-08-29T06:54:50.566Z,19.62
2022-08-29T06:57:45.317Z,19.92
2022-08-29T07:00:33.840Z,20.21
2022-08-29T07:03:23.000Z,20.27
2022-08-29T07:06:13.300Z,20.21
2022-08-29T07:09:01.848Z,20.66
2022-08-29T07:11:50.626Z,20.75
2022-08-29T07:14:39.180Z,20.85
2022-08-29T07:17:27.692Z,20.86
2022-08-29T07:20:16.623Z,20.67
2022-08-29T07:23:06.587Z,20.93
2022-08-29T07:25:57.287Z,21.09
2022-08-29T07:28:47.621Z,20.82
2022-08-29T07:31:36.537Z,21.30
2022-08-29T07:34:25.068Z,21.63
2022-08-29T07:37:13.681Z,21.78
2022-08-29T07:40:04.781Z,21.96
2022-08-29T07:42:53.253Z,22.24
2022-08-29T07:45:41.871Z,22.31
2022-08-29T07:48:30.419Z,22.21
2022-08-29T07:51:21.725Z,22.33
2022-08-29T07:54:11.113Z,22.55
2022-08-29T07:57:01.044Z,22.67
2022-08-29T07:59:50.109Z,22.76
2022-08-29T08:02:38.705Z,23.17
2022-08-29T08:05:28.074Z,23.25
2022-08-29T08:08:16.669Z,23.26
2022-08-29T08:11:05.685Z,23.13
2022-08-29T08:13:57.432Z,23.33
2022-08-29T08:16:46.222Z,23.28
2022-08-29T08:19:34.879Z,23.47
2022-08-29T08:22:23.430Z,23.64
2022-08-29T08:25:12.008Z,23.69
2022-08-29T08:28:00.565Z,23.26
2022-08-29T08:30:50.646Z,23.69
2022-08-29T08:33:40.022Z,24.03
2022-08-29T08:36:30.656Z,24.16
2022-08-29T08:39:19.917Z,24.13
2022-08-29T08:42:14.256Z,24.06
2022-08-29T08:45:08.161Z,24.26
2022-08-29T08:48:01.156Z,24.35
2022-08-29T08:50:54.885Z,24.24
2022-08-29T08:53:45.301Z,24.36
2022-08-29T08:56:36.833Z,24.24
2022-08-29T08:59:30.085Z,24.36
2022-08-29T09:02:35.386Z,24.50
2022-08-29T09:05:39.456Z,24.56
2022-08-29T09:08:34.421Z,24.70
2022-08-29T09:11:29.859Z,24.56
2022-08-29T09:14:33.604Z,24.68
2022-08-29T09:17:26.179Z,24.77
2022-08-29T09:20:18.521Z,25.08
2022-08-29T09:23:14.555Z,24.79
2022-08-29T09:26:03.264Z,25.06
2022-08-29T09:28:52.355Z,25.18
2022-08-29T09:31:41.531Z,25.19
2022-08-29T09:34:56.984Z,25.18
2022-08-29T09:37:44.658Z,25.31
2022-08-29T09:40:50.942Z,25.28
2022-08-29T09:43:48.264Z,25.30
2022-08-29T09:46:38.968Z,25.18
2022-08-29T09:49:27.573Z,24.99
2022-08-29T09:52:18.128Z,24.94
2022-08-29T09:55:22.643Z,25.24
2022-08-29T09:58:31.039Z,25.34
2022-08-29T10:01:23.973Z,25.37
2022-08-29T10:04:37.113Z,25.23
2022-08-29T10:07:27.988Z,25.32
2022-08-29T10:10:19.116Z,25.62
2022-08-29T10:13:11.791Z,25.27
2022-08-29T10:16:09.110Z,25.62
2022-08-29T10:19:00.476Z,25.54
2022-08-29T10:21:56.781Z,25.48
2022-08-29T10:24:56.000Z,25.60
2022-08-29T10:27:48.602Z,25.88
2022-08-29T10:30:43.252Z,25.80
2022-08-29T10:33:49.039Z,25.68
2022-08-29T10:36:39.150Z,25.86
2022-08-29T10:39:36.795Z,25.96
2022-08-29T10:42:26.967Z,26.29
2022-08-29T10:45:18.260Z,26.18
2022-08-29T10:48:11.387Z,26.16
2022-08-29T10:51:13.676Z,26.25
2022-08-29T10:54:12.968Z,26.16
2022-08-29T10:57:02.776Z,26.44
2022-08-29T10:59:56.879Z,26.55
2022-08-29T11:02:48.976Z,26.56
2022-08-29T11:05:43.861Z,26.84
2022-08-29T11:08:36.426Z,26.81
2022-08-29T11:11:25.712Z,26.66
2022-08-29T11:14:23.118Z,26.67
2022-08-29T11:17:14.824Z,26.75
2022-08-29T11:20:09.547Z,27.05
2022-08-29T11:23:01.438Z,27.25
2022-08-29T11:25:51.739Z,27.27
2022-08-29T11:31:44.291Z,27.53
2022-08-29T11:34:43.221Z,27.52
2022-08-29T11:37:49.285Z,27.88
2022-08-29T11:40:48.447Z,27.85
2022-08-29T11:43:42.026Z,27.96
2022-08-29T11:46:37.401Z,27.75
2022-08-29T11:49:33.917Z,28.13
2022-08-29T11:52:26.362Z,28.21
2022-08-29T11:55:25.420Z,28.43
2022-08-29T11:58:46.600Z,28.31
2022-08-29T12:02:00.607Z,28.53
2022-08-29T12:04:54.956Z,28.06
2022-08-29T12:07:48.183Z,28.27
2022-08-29T12:10:53.083Z,28.40
2022-08-29T12:14:04.806Z,28.50
2022-08-29T12:16:53.756Z,28.49
2022-08-29T12:19:47.631Z,28.67
2022-08-29T12:23:00.521Z,28.89
2022-08-29T12:26:09.618Z,28.55
2022-08-29T12:29:10.366Z,28.47
2022-08-29T12:32:23.383Z,28.57
2022-08-29T12:35:24.056Z,28.76
2022-08-29T12:38:24.386Z,28.58
2022-08-29T12:41:30.512Z,28.74
2022-08-29T12:44:27.293Z,28.68
2022-08-29T12:47:22.172Z,28.55
2022-08-29T12:50:17.615Z,28.05
2022-08-29T12:53:07.675Z,28.55
2022-08-29T12:55:58.427Z,28.39
2022-08-29T12:58:55.839Z,28.69
2022-08-29T13:01:48.730Z,28.64
2022-08-29T13:04:38.930Z,28.63
2022-08-29T13:07:29.024Z,28.57
2022-08-29T13:10:20.063Z,28.89
2022-08-29T13:13:12.521Z,28.94
2022-08-29T13:16:03.558Z,28.89
2022-08-29T13:19:09.994Z,28.89
2022-08-29T13:22:04.116Z,28.98
2022-08-29T13:25:04.040Z,28.95
2022-08-29T13:28:01.117Z,28.92
2022-08-29T13:31:31.255Z,29.01
2022-08-29T13:34:22.518Z,28.86
2022-08-29T13:37:30.208Z,28.06
2022-08-29T13:40:36.686Z,28.79
2022-08-29T13:43:32.314Z,29.02
2022-08-29T13:46:27.619Z,29.05
2022-08-29T13:49:23.080Z,29.11
2022-08-29T13:52:12.695Z,29.13
2022-08-29T13:55:02.511Z,29.31
2022-08-29T13:57:54.116Z,29.21
2022-08-29T14:00:43.727Z,29.24
2022-08-29T14:03:33.033Z,28.95
2022-08-29T14:06:25.513Z,29.10
2022-08-29T14:09:18.052Z,29.29
2022-08-29T14:12:07.267Z,28.78
2022-08-29T14:14:55.862Z,29.00
2022-08-29T14:17:45.697Z,28.80
2022-08-29T14:20:34.538Z,28.96
2022-08-29T14:23:24.508Z,28.92
2022-08-29T14:26:14.105Z,28.94
2022-08-29T14:29:03.635Z,29.08
2022-08-29T14:31:53.881Z,29.06
2022-08-29T14:34:50.944Z,29.02
2022-08-29T14:37:40.452Z,28.81
2022-08-29T14:40:32.276Z,28.97
2022-08-29T14:43:20.984Z,28.89
2022-08-29T14:46:09.662Z,28.68
2022-08-29T14:48:58.285Z,28.66
2022-08-29T14:51:47.025Z,28.79
2022-08-29T14:54:35.696Z,28.79
2022-08-29T14:57:25.657Z,28.92
2022-08-29T15:00:17.898Z,28.99
2022-08-29T15:03:07.986Z,28.91
2022-08-29T15:05:56.656Z,28.99
2022-08-29T15:08:45.793Z,28.78
2022-08-29T15:11:34.429Z,28.94
2022-08-29T15:14:24.621Z,28.89
2022-08-29T15:17:13.560Z,28.96
2022-08-29T15:23:12.218Z,28.60
2022-08-29T15:26:02.697Z,28.61
2022-08-29T15:28:51.539Z,28.74
2022-08-29T15:31:41.504Z,28.77
2022-08-29T15:34:31.307Z,28.74
2022-08-29T15:37:20.041Z,28.65
2022-08-29T15:40:13.118Z,28.51
2022-08-29T15:43:02.626Z,28.33
2022-08-29T15:45:51.240Z,28.58
2022-08-29T15:48:41.548Z,28.54
2022-08-29T15:51:30.188Z,28.52
2022-08-29T15:54:19.289Z,28.46
2022-08-29T15:57:08.087Z,28.43
2022-08-29T15:59:58.892Z,28.40
2022-08-29T16:02:47.817Z,28.32
2022-08-29T16:05:40.219Z,28.24
2022-08-29T16:08:29.750Z,28.39
2022-08-29T16:11:18.473Z,28.35
2022-08-29T16:14:41.053Z,28.30
2022-08-29T16:17:16.007Z,28.04
2022-08-29T16:20:05.935Z,28.20
2022-08-29T16:22:56.374Z,28.09
2022-08-29T16:25:44.938Z,28.10
2022-08-29T16:28:33.518Z,28.04
2022-08-29T16:31:22.265Z,27.98
2022-08-29T16:34:10.934Z,27.91
2022-08-29T16:37:00.692Z,27.83
2022-08-29T16:39:50.647Z,27.79
2022-08-29T16:42:40.234Z,27.76
2022-08-29T16:45:28.875Z,27.65
2022-08-29T16:48:18.032Z,27.71
2022-08-29T16:51:07.200Z,27.66
2022-08-29T16:53:56.530Z,27.63
2022-08-29T16:56:46.691Z,27.55
2022-08-29T16:59:37.246Z,27.58
2022-08-29T17:02:25.996Z,27.46
2022-08-29T17:05:14.600Z,27.42
2022-08-29T17:08:02.291Z,27.37
2022-08-29T17:10:49.874Z,27.25
2022-08-29T17:13:40.899Z,27.23
2022-08-29T17:16:29.670Z,27.22
2022-08-29T17:19:19.251Z,27.04
2022-08-29T17:22:10.140Z,27.06
2022-08-29T17:25:01.956Z,27.04
2022-08-29T17:28:14.087Z,26.96
2022-08-29T17:31:01.056Z,26.86
2022-08-29T17:33:49.777Z,26.72
2022-08-29T17:36:39.783Z,26.69
2022-08-29T17:39:28.358Z,26.63
2022-08-29T17:42:18.670Z,26.48
2022-08-29T17:45:08.787Z,26.53
2022-08-29T17:47:58.878Z,26.46
2022-08-29T17:50:47.591Z,26.39
2022-08-29T17:53:36.297Z,26.31
2022-08-29T17:56:29.295Z,26.20
2022-08-29T17:59:18.988Z,25.91
2022-08-29T18:02:08.391Z,26.11
2022-08-29T18:04:58.490Z,26.00
2022-08-29T18:07:47.034Z,25.80
2022-08-29T18:10:37.214Z,25.70
2022-08-29T18:13:25.764Z,25.64
2022-08-29T18:16:14.936Z,25.58
2022-08-29T18:19:03.737Z,25.42
2022-08-29T18:21:55.249Z,25.36
2022-08-29T18:24:43.812Z,25.39
2022-08-29T18:27:32.468Z,25.34
2022-08-29T18:30:21.408Z,25.29
2022-08-29T18:33:09.978Z,25.22
2022-08-29T18:35:58.579Z,25.15
2022-08-29T18:38:49.395Z,25.04
2022-08-29T18:41:38.121Z,24.99
2022-08-29T18:44:26.716Z,24.89
2022-08-29T18:47:15.257Z,24.80
2022-08-29T18:50:24.850Z,24.73
2022-08-29T18:53:15.733Z,24.67
2022-08-29T18:56:06.058Z,24.53
2022-08-29T18:58:58.743Z,24.53
2022-08-29T19:01:47.759Z,24.46
2022-08-29T19:04:36.337Z,24.42
2022-08-29T19:07:24.874Z,24.36
2022-08-29T19:10:13.487Z,24.24
2022-08-29T19:13:03.931Z,24.16
2022-08-29T19:15:52.623Z,24.05
2022-08-29T19:18:41.524Z,23.91
2022-08-29T19:21:29.149Z,23.97
2022-08-29T19:24:17.693Z,23.81
2022-08-29T19:27:14.253Z,23.76
2022-08-29T19:30:14.095Z,23.49
2022-08-29T19:33:02.693Z,23.52
2022-08-29T19:35:53.568Z,23.55
2022-08-29T19:38:42.563Z,23.31
2022-08-29T19:41:31.138Z,23.17
2022-08-29T19:44:19.759Z,23.22
2022-08-29T19:47:09.684Z,23.15
2022-08-29T19:49:58.292Z,23.10
2022-08-29T19:52:47.084Z,23.07
2022-08-29T19:55:36.242Z,23.05
2022-08-29T19:58:31.154Z,22.98
2022-08-29T20:01:20.942Z,22.86
2022-08-29T20:04:10.994Z,22.79
2022-08-29T20:07:01.410Z,22.71
2022-08-29T20:09:50.749Z,22.82
2022-08-29T20:12:39.269Z,22.55
2022-08-29T20:15:30.524Z,22.43
2022-08-29T20:18:19.808Z,22.41
2022-08-29T20:21:10.511Z,22.19
2022-08-29T20:23:59.548Z,22.10
2022-08-29T20:26:50.141Z,22.00
2022-08-29T20:29:38.708Z,22.01
2022-08-29T20:32:27.277Z,22.02
2022-08-29T20:35:36.578Z,21.87
2022-08-29T20:38:25.616Z,21.75
2022-08-29T20:41:14.193Z,21.62
2022-08-29T20:44:10.883Z,21.44
2022-08-29T20:46:59.520Z,21.47
2022-08-29T20:49:49.450Z,21.33
2022-08-29T20:52:38.610Z,21.35
2022-08-29T20:55:28.536Z,21.22
2022-08-29T20:58:17.081Z,21.16
2022-08-29T21:01:07.906Z,21.08
2022-08-29T21:04:14.573Z,21.01
2022-08-29T21:07:12.177Z,20.94
2022-08-29T21:10:02.086Z,20.87
2022-08-29T21:12:52.252Z,20.68
2022-08-29T21:15:42.222Z,20.76
2022-08-29T21:18:31.087Z,20.70
2022-08-29T21:21:22.988Z,20.30
2022-08-29T21:24:13.446Z,20.59
2022-08-29T21:27:02.051Z,20.54
2022-08-29T21:29:51.983Z,20.49
2022-08-29T21:32:40.554Z,20.47
2022-08-29T21:35:29.385Z,20.45
2022-08-29T21:38:18.275Z,20.41
2022-08-29T21:41:09.744Z,20.37
2022-08-29T21:43:58.774Z,20.34
2022-08-29T21:46:48.715Z,20.32
2022-08-29T21:49:37.508Z,20.28
2022-08-29T21:52:26.118Z,20.17
2022-08-29T21:55:14.900Z,20.02
2022-08-29T21:58:03.701Z,20.03
2022-08-29T22:00:52.612Z,19.95
2022-08-29T22:03:42.529Z,19.92
2022-08-29T22:06:33.216Z,19.93
2022-08-29T22:09:21.892Z,19.94
2022-08-29T22:12:10.460Z,19.94
2022-08-29T22:15:16.334Z,19.94
2022-08-29T22:18:06.065Z,19.95
2022-08-29T22:20:56.006Z,19.88
2022-08-29T22:23:45.541Z,19.80
2022-08-29T22:26:34.614Z,19.82
2022-08-29T22:29:23.210Z,19.77
2022-08-29T22:32:11.774Z,19.79
2022-08-29T22:35:00.691Z,19.69
2022-08-29T22:37:54.224Z,19.75
2022-08-29T22:40:44.310Z,19.56
2022-08-29T22:43:32.903Z,19.62
2022-08-29T22:46:24.115Z,19.50
2022-08-29T22:49:12.715Z,19.57
2022-08-29T22:52:01.380Z,19.56
2022-08-29T22:54:51.241Z,19.49
2022-08-29T22:57:39.961Z,19.47
2022-08-29T23:00:28.482Z,19.41
2022-08-29T23:03:17.423Z,19.45
2022-08-29T23:06:06.254Z,19.44
2022-08-29T23:08:55.458Z,19.25
2022-08-29T23:11:45.404Z,19.25
2022-08-29T23:14:35.645Z,18.12
2022-08-29T23:17:24.387Z,19.12
2022-08-29T23:20:14.510Z,19.05
2022-08-29T23:23:03.073Z,18.94
2022-08-29T23:25:57.229Z,18.94
2022-08-29T23:28:47.504Z,18.86
2022-08-29T23:31:36.079Z,18.82
2022-08-29T23:34:24.664Z,18.74
2022-08-29T23:37:13.347Z,17.92
2022-08-29T23:40:02.542Z,18.80
2022-08-29T23:42:51.129Z,18.68
2022-08-29T23:45:41.035Z,18.69
2022-08-29T23:48:30.240Z,18.65
2022-08-29T23:51:19.267Z,18.49
2022-08-29T23:54:08.218Z,18.62
2022-08-29T23:56:56.997Z,18.49
